createdAt,value
2022-09-12T00:00:08.741Z,954.1347046
2022-09-12T00:01:09.322Z,954.0847168
2022-09-12T00:02:09.746Z,954.107666
2022-09-12T00:03:10.122Z,954.052002
2022-09-12T00:04:11.559Z,954.079895
2022-09-12T00:05:12.008Z,954.0790405
2022-09-12T00:06:12.545Z,954.0214844
2022-09-12T00:07:13.006Z,954.0534668
2022-09-12T00:08:13.552Z,954.0797729
2022-09-12T00:09:13.852Z,954.0462646
2022-09-12T00:10:14.297Z,954.0509644
2022-09-12T00:11:14.749Z,954.074707
2022-09-12T00:12:15.205Z,954.0845337
2022-09-12T00:13:15.780Z,954.0532837
2022-09-12T00:14:17.030Z,954.0557861
2022-09-12T00:15:17.448Z,954.045166
2022-09-12T00:16:18.016Z,954.0335693
2022-09-12T00:17:18.389Z,953.9909668
2022-09-12T00:18:18.909Z,954.0293579
2022-09-12T00:19:19.275Z,954.0301514
2022-09-12T00:20:19.694Z,954.0170288
2022-09-12T00:21:20.162Z,954.0315552
2022-09-12T00:22:20.585Z,954.0144043
2022-09-12T00:23:21.097Z,954.0178223
2022-09-12T00:24:22.026Z,953.9701538
2022-09-12T00:25:22.456Z,953.9586182
2022-09-12T00:26:22.952Z,953.9587402
2022-09-12T00:27:23.406Z,953.9896851
2022-09-12T00:28:23.865Z,953.9659424
2022-09-12T00:29:24.241Z,954.0003052
2022-09-12T00:30:24.661Z,954.0353394
2022-09-12T00:31:25.217Z,954.0106201
2022-09-12T00:32:25.607Z,953.9616699
2022-09-12T00:33:26.089Z,954.0125122
2022-09-12T00:34:27.046Z,953.9909668
2022-09-12T00:35:27.478Z,953.987793
2022-09-12T00:36:58.526Z,953.9689331
2022-09-12T00:37:59.031Z,953.9484863
2022-09-12T00:38:59.506Z,953.9467163
2022-09-12T00:39:59.926Z,953.9572754
2022-09-12T00:41:00.308Z,953.9442139
2022-09-12T00:42:00.807Z,953.9358521
2022-09-12T00:43:01.833Z,953.9129639
2022-09-12T00:44:02.286Z,953.8833618
2022-09-12T00:45:03.319Z,953.923584
2022-09-12T00:46:03.836Z,953.8622437
2022-09-12T00:47:04.301Z,953.8579712
2022-09-12T00:48:04.745Z,953.8492432
2022-09-12T00:49:05.326Z,953.8375244
2022-09-12T00:50:05.638Z,953.8146973
2022-09-12T00:51:07.059Z,953.8343506
2022-09-12T00:52:07.588Z,953.8201294
2022-09-12T00:53:08.104Z,953.850647
2022-09-12T00:54:09.345Z,953.8488159
2022-09-12T00:55:09.791Z,953.8684082
2022-09-12T00:56:10.207Z,953.8479614
2022-09-12T00:57:10.653Z,953.8726807
2022-09-12T00:58:11.099Z,953.8552856
2022-09-12T00:59:11.960Z,953.847168
2022-09-12T01:00:12.303Z,953.8413086
2022-09-12T01:01:13.432Z,953.8373413
2022-09-12T01:02:13.858Z,953.8217163
2022-09-12T01:03:14.306Z,953.8062744
2022-09-12T01:04:14.701Z,953.8013916
2022-09-12T01:05:15.122Z,953.7384644
2022-09-12T01:06:15.550Z,953.7962646
2022-09-12T01:07:16.002Z,953.7963257
2022-09-12T01:08:17.335Z,953.7751465
2022-09-12T01:09:17.826Z,953.7856445
2022-09-12T01:10:18.208Z,953.7717285
2022-09-12T01:11:18.626Z,953.7324829
2022-09-12T01:12:19.094Z,953.7329712
2022-09-12T01:13:19.553Z,953.7190552
2022-09-12T01:14:20.871Z,953.7025146
2022-09-12T01:15:21.276Z,953.7081299
2022-09-12T01:16:22.387Z,953.6893921
2022-09-12T01:17:22.784Z,953.6809082
2022-09-12T01:18:23.261Z,953.7006226
2022-09-12T01:19:23.806Z,953.7128296
2022-09-12T01:20:24.147Z,953.6743774
2022-09-12T01:21:25.316Z,953.6629639
2022-09-12T01:22:25.762Z,953.6702271
2022-09-12T01:23:26.235Z,953.6693726
2022-09-12T01:24:27.339Z,953.6677856
2022-09-12T01:25:57.979Z,953.5909424
2022-09-12T01:26:58.390Z,953.6218262
2022-09-12T01:27:58.874Z,953.6307983
2022-09-12T01:28:59.316Z,953.6560059
2022-09-12T01:29:59.831Z,953.6403809
2022-09-12T01:31:00.843Z,953.633728
2022-09-12T01:32:01.274Z,953.5945435
2022-09-12T01:33:01.702Z,953.5779419
2022-09-12T01:34:02.196Z,953.5978394
2022-09-12T01:35:03.666Z,953.53479
2022-09-12T01:36:04.014Z,953.5623169
2022-09-12T01:37:04.474Z,953.5501709
2022-09-12T01:38:04.925Z,953.5328369
2022-09-12T01:39:06.082Z,953.600647
2022-09-12T01:40:06.632Z,953.5480957
2022-09-12T01:41:07.006Z,953.6381226
2022-09-12T01:42:07.436Z,953.5499268
2022-09-12T01:43:07.841Z,953.5775146
2022-09-12T01:44:08.312Z,953.6052856
2022-09-12T01:45:09.664Z,953.6102905
2022-09-12T01:46:10.064Z,953.5767212
2022-09-12T01:47:10.477Z,953.5865479
2022-09-12T01:48:10.912Z,953.6003418
2022-09-12T01:49:11.570Z,953.605957
2022-09-12T01:50:12.061Z,953.6099854
2022-09-12T01:51:12.491Z,953.6018677
2022-09-12T01:52:12.870Z,953.5976563
2022-09-12T01:53:13.388Z,953.5754395
2022-09-12T01:54:14.861Z,953.572998
2022-09-12T01:55:15.425Z,953.5402832
2022-09-12T01:56:15.784Z,953.5658569
2022-09-12T01:57:16.217Z,953.5976563
2022-09-12T01:58:17.330Z,953.559082
2022-09-12T01:59:17.808Z,953.5934448
2022-09-12T02:00:18.211Z,953.617981
2022-09-12T02:01:18.665Z,953.5932007
2022-09-12T02:02:19.096Z,953.5884399
2022-09-12T02:03:19.523Z,953.5949707
2022-09-12T02:04:20.878Z,953.5940552
2022-09-12T02:05:21.385Z,953.5826416
2022-09-12T02:06:21.838Z,953.5562744
2022-09-12T02:07:22.305Z,953.5759277
2022-09-12T02:08:22.730Z,953.5635986
2022-09-12T02:09:23.307Z,953.5635986
2022-09-12T02:10:23.781Z,953.5678101
2022-09-12T02:11:24.218Z,953.5881348
2022-09-12T02:12:24.632Z,953.5512695
2022-09-12T02:13:25.044Z,953.5670166
2022-09-12T02:14:26.407Z,953.5970459
2022-09-12T02:15:57.229Z,953.5343018
2022-09-12T02:16:57.646Z,953.611084
2022-09-12T02:17:58.095Z,953.5626831
2022-09-12T02:18:58.512Z,953.5568848
2022-09-12T02:19:59.015Z,953.5758057
2022-09-12T02:20:59.505Z,953.5808105
2022-09-12T02:22:00.863Z,953.5651855
2022-09-12T02:23:01.316Z,953.6027222
2022-09-12T02:24:01.716Z,953.5952148
2022-09-12T02:25:03.102Z,953.576416
2022-09-12T02:26:03.541Z,953.5700073
2022-09-12T02:27:04.011Z,953.5805664
2022-09-12T02:28:04.440Z,953.5976563
2022-09-12T02:29:04.892Z,953.5695801
2022-09-12T02:30:05.388Z,953.5222778
2022-09-12T02:31:06.026Z,953.5377197
2022-09-12T02:32:06.398Z,953.5596924
2022-09-12T02:33:06.822Z,953.5639648
2022-09-12T02:34:07.827Z,953.5326538
2022-09-12T02:35:08.905Z,953.5367432
2022-09-12T02:36:09.452Z,953.5357666
2022-09-12T02:37:09.828Z,953.5595093
2022-09-12T02:38:10.282Z,953.522522
2022-09-12T02:39:10.780Z,953.5390015
2022-09-12T02:40:11.620Z,953.4880981
2022-09-12T02:41:12.292Z,953.5100708
2022-09-12T02:42:12.610Z,953.5419312
2022-09-12T02:43:13.029Z,953.5279541
2022-09-12T02:44:13.443Z,953.5303345
2022-09-12T02:45:14.494Z,953.5549927
2022-09-12T02:46:15.040Z,953.5687256
2022-09-12T02:47:15.443Z,953.5449829
2022-09-12T02:48:15.900Z,953.513916
2022-09-12T02:49:16.391Z,953.5254517
2022-09-12T02:50:16.796Z,953.5
2022-09-12T02:51:20.381Z,953.5236206
2022-09-12T02:52:18.562Z,953.5007935
2022-09-12T02:53:19.016Z,953.5285645
2022-09-12T02:54:19.459Z,953.486084
2022-09-12T02:55:19.906Z,953.4743652
2022-09-12T02:56:20.428Z,953.4907837
2022-09-12T02:57:22.842Z,953.5356445
2022-09-12T02:58:21.361Z,953.5144653
2022-09-12T02:59:21.778Z,953.5036621
2022-09-12T03:00:22.208Z,953.5265503
2022-09-12T03:01:22.747Z,953.5159302
2022-09-12T03:02:23.162Z,953.5183105
2022-09-12T03:03:23.641Z,953.545166
2022-09-12T03:04:24.044Z,953.5204468
2022-09-12T03:05:25.028Z,953.529541
2022-09-12T03:06:25.531Z,953.5081177
2022-09-12T03:07:56.504Z,953.506897
2022-09-12T03:08:56.923Z,953.5484619
2022-09-12T03:09:57.385Z,953.5042114
2022-09-12T03:10:58.356Z,953.4944458
2022-09-12T03:11:58.866Z,953.513855
2022-09-12T03:12:59.264Z,953.4998169
2022-09-12T03:13:59.725Z,953.5113525
2022-09-12T03:15:00.838Z,953.5064087
2022-09-12T03:16:01.248Z,953.4893188
2022-09-12T03:17:01.774Z,953.456665
2022-09-12T03:18:02.195Z,953.46875
2022-09-12T03:19:02.633Z,953.508728
2022-09-12T03:20:03.076Z,953.4940796
2022-09-12T03:21:03.501Z,953.5175781
2022-09-12T03:22:03.976Z,953.5150757
2022-09-12T03:23:05.058Z,953.5232544
2022-09-12T03:24:05.485Z,953.4960938
2022-09-12T03:25:06.831Z,953.546875
2022-09-12T03:26:07.282Z,953.5353394
2022-09-12T03:27:07.776Z,953.4984131
2022-09-12T03:28:08.206Z,953.5396118
2022-09-12T03:29:08.642Z,953.501709
2022-09-12T03:30:09.115Z,953.503418
2022-09-12T03:31:09.537Z,953.4854736
2022-09-12T03:32:10.086Z,953.4741211
2022-09-12T03:33:11.690Z,953.4829712
2022-09-12T03:34:12.165Z,953.4804077
2022-09-12T03:35:13.362Z,953.4983521
2022-09-12T03:36:13.814Z,953.4771729
2022-09-12T03:37:14.227Z,953.4991455
2022-09-12T03:38:14.774Z,953.4829102
2022-09-12T03:39:15.274Z,953.4770508
2022-09-12T03:40:16.409Z,953.5054932
2022-09-12T03:41:16.786Z,953.5169678
2022-09-12T03:42:17.217Z,953.5127563
2022-09-12T03:43:17.739Z,953.5013428
2022-09-12T03:44:18.215Z,953.4963989
2022-09-12T03:45:18.723Z,953.5232544
2022-09-12T03:46:19.186Z,953.4866943
2022-09-12T03:47:19.645Z,953.5043945
2022-09-12T03:48:20.037Z,953.5175171
2022-09-12T03:49:20.441Z,953.4724731
2022-09-12T03:50:20.870Z,953.4724731
2022-09-12T03:51:21.861Z,953.477356
2022-09-12T03:52:22.341Z,953.4454956
2022-09-12T03:53:22.832Z,953.4464111
2022-09-12T03:54:23.345Z,953.4586182
2022-09-12T03:55:24.345Z,953.4854126
2022-09-12T03:56:24.823Z,953.4802856
2022-09-12T03:57:55.849Z,953.4712524
2022-09-12T03:58:56.307Z,953.5267944
2022-09-12T03:59:56.752Z,953.5257568
2022-09-12T04:00:57.250Z,953.522522
2022-09-12T04:01:57.638Z,953.4801636
2022-09-12T04:02:58.906Z,953.524231
2022-09-12T04:03:59.339Z,953.5176392
2022-09-12T04:04:59.861Z,953.5130615
2022-09-12T04:06:00.282Z,953.5153198
2022-09-12T04:07:00.794Z,953.4777222
2022-09-12T04:08:02.146Z,953.4385376
2022-09-12T04:09:02.437Z,953.4852295
2022-09-12T04:10:03.685Z,953.4763184
2022-09-12T04:11:03.282Z,953.4754639
2022-09-12T04:12:03.751Z,953.4852295
2022-09-12T04:13:04.206Z,953.5120239
2022-09-12T04:14:04.625Z,953.4623413
2022-09-12T04:15:05.828Z,953.482666
2022-09-12T04:16:06.262Z,953.5349731
2022-09-12T04:17:06.720Z,953.5275269
2022-09-12T04:18:07.237Z,953.5412598
2022-09-12T04:19:07.943Z,953.4508057
2022-09-12T04:20:08.393Z,953.5259399
2022-09-12T04:21:08.815Z,953.5061035
2022-09-12T04:22:09.220Z,953.4979858
2022-09-12T04:23:10.350Z,953.4710693
2022-09-12T04:24:10.808Z,953.4660034
2022-09-12T04:25:11.579Z,953.4742432
2022-09-12T04:26:12.625Z,953.4400024
2022-09-12T04:27:13.056Z,953.4422607
2022-09-12T04:28:13.544Z,953.4159546
2022-09-12T04:29:13.947Z,953.4338989
2022-09-12T04:30:14.369Z,953.390625
2022-09-12T04:31:15.348Z,953.4108887
2022-09-12T04:32:15.773Z,953.414856
2022-09-12T04:33:16.329Z,953.3953247
2022-09-12T04:34:16.639Z,953.4251709
2022-09-12T04:35:17.855Z,953.4572144
2022-09-12T04:36:18.263Z,953.4259644
2022-09-12T04:37:18.690Z,953.461853
2022-09-12T04:38:19.175Z,953.4472046
2022-09-12T04:39:19.560Z,953.447998
2022-09-12T04:40:20.879Z,953.4558105
2022-09-12T04:41:21.305Z,953.4428101
2022-09-12T04:42:21.713Z,953.446106
2022-09-12T04:43:22.190Z,953.4501343
2022-09-12T04:44:22.609Z,953.4597168
2022-09-12T04:45:23.859Z,953.4417114
2022-09-12T04:46:24.306Z,953.4685059
2022-09-12T04:47:55.158Z,953.4568481
2022-09-12T04:48:57.068Z,953.4921265
2022-09-12T04:49:56.051Z,953.4660034
2022-09-12T04:50:56.491Z,953.4611206
2022-09-12T04:51:56.937Z,953.489624
2022-09-12T04:52:57.372Z,953.5033569
2022-09-12T04:53:57.818Z,953.5328369
2022-09-12T04:54:58.226Z,953.5083008
2022-09-12T04:55:59.564Z,953.501709
2022-09-12T04:57:00.027Z,953.5108643
2022-09-12T04:58:00.427Z,953.5036011
2022-09-12T04:59:00.901Z,953.5123291
2022-09-12T05:00:06.497Z,953.5018921
2022-09-12T05:01:01.848Z,953.5109253
2022-09-12T05:02:02.448Z,953.479248
2022-09-12T05:03:03.564Z,953.46875
2022-09-12T05:04:03.955Z,953.4849854
2022-09-12T05:05:04.318Z,953.5072021
2022-09-12T05:06:05.570Z,953.5203247
2022-09-12T05:07:06.008Z,953.4804688
2022-09-12T05:08:06.491Z,953.4983521
2022-09-12T05:09:07.100Z,953.5319824
2022-09-12T05:10:07.432Z,953.5357666
2022-09-12T05:11:07.858Z,953.5654907
2022-09-12T05:12:08.348Z,953.6013794
2022-09-12T05:13:08.742Z,953.5834351
2022-09-12T05:14:09.216Z,953.5539551
2022-09-12T05:15:09.615Z,953.5532837
2022-09-12T05:16:10.627Z,953.5141602
2022-09-12T05:17:10.990Z,953.5516357
2022-09-12T05:18:11.680Z,953.5507202
2022-09-12T05:19:12.143Z,953.5310669
2022-09-12T05:20:12.578Z,953.5343628
2022-09-12T05:21:13.045Z,953.5621338
2022-09-12T05:22:13.504Z,953.557251
2022-09-12T05:23:13.954Z,953.5516968
2022-09-12T05:24:14.448Z,953.555603
2022-09-12T05:25:14.851Z,953.5484619
2022-09-12T05:26:16.043Z,953.5539551
2022-09-12T05:27:16.483Z,953.6055298
2022-09-12T05:28:16.931Z,953.5427856
2022-09-12T05:29:17.418Z,953.5777588
2022-09-12T05:30:17.849Z,953.5567017
2022-09-12T05:31:18.307Z,953.6015015
2022-09-12T05:32:19.359Z,953.6229858
2022-09-12T05:33:23.241Z,953.6311646
2022-09-12T05:34:20.270Z,953.6464844
2022-09-12T05:35:20.738Z,953.6262207
2022-09-12T05:36:21.178Z,953.6255493
2022-09-12T05:37:22.367Z,953.6500244
2022-09-12T05:38:22.790Z,953.677002
2022-09-12T05:39:23.281Z,953.6933594
2022-09-12T05:40:24.163Z,953.6525269
2022-09-12T05:41:54.859Z,953.6478271
2022-09-12T05:42:55.299Z,953.6746216
2022-09-12T05:43:55.790Z,953.6681519
2022-09-12T05:44:56.316Z,953.7107544
2022-09-12T05:45:57.372Z,953.7304077
2022-09-12T05:46:57.809Z,953.7271118
2022-09-12T05:47:58.273Z,953.7248535
2022-09-12T05:48:58.738Z,953.7019043
2022-09-12T05:49:59.227Z,953.6854858
2022-09-12T05:50:59.636Z,953.7079468
2022-09-12T05:52:00.138Z,953.6630249
2022-09-12T05:53:00.596Z,953.6574097
2022-09-12T05:54:01.566Z,953.7040405
2022-09-12T05:55:02.022Z,953.694519
2022-09-12T05:56:03.371Z,953.6773682
2022-09-12T05:57:03.853Z,953.6724854
2022-09-12T05:58:04.299Z,953.6814575
2022-09-12T05:59:04.778Z,953.6954956
2022-09-12T06:00:05.267Z,953.7159424
2022-09-12T06:01:05.696Z,953.7210693
2022-09-12T06:02:06.180Z,953.6998291
2022-09-12T06:03:07.572Z,953.7089233
2022-09-12T06:04:08.006Z,953.7130737
2022-09-12T06:05:08.445Z,953.7051392
2022-09-12T06:06:09.882Z,953.7240601
2022-09-12T06:07:10.370Z,953.7053223
2022-09-12T06:08:10.840Z,953.725769
2022-09-12T06:09:41.476Z,953.7615356
2022-09-12T06:11:12.171Z,953.7536011
2022-09-12T06:12:12.582Z,953.7562256
2022-09-12T06:13:13.027Z,953.8396606
2022-09-12T06:14:13.483Z,953.7850952
2022-09-12T06:15:13.996Z,953.8406372
2022-09-12T06:16:14.566Z,953.7999878
2022-09-12T06:17:15.888Z,953.8015137
2022-09-12T06:18:16.370Z,953.8173218
2022-09-12T06:19:16.811Z,953.803833
2022-09-12T06:20:17.224Z,953.7910156
2022-09-12T06:21:18.390Z,953.7796631
2022-09-12T06:22:18.823Z,953.753418
2022-09-12T06:23:19.292Z,953.8101807
2022-09-12T06:24:19.746Z,953.7996216
2022-09-12T06:25:21.112Z,953.8314819
2022-09-12T06:26:22.376Z,953.843811
2022-09-12T06:27:22.790Z,953.8792114
2022-09-12T06:28:53.959Z,953.8579102
2022-09-12T06:29:54.370Z,953.8908081
2022-09-12T06:30:54.917Z,953.8811646
2022-09-12T06:31:55.345Z,953.9031372
2022-09-12T06:32:56.364Z,953.8795166
2022-09-12T06:33:56.866Z,953.828125
2022-09-12T06:34:57.326Z,953.8015747
2022-09-12T06:35:58.399Z,953.8226318
2022-09-12T06:36:58.875Z,953.8326416
2022-09-12T06:37:59.276Z,953.8237305
2022-09-12T06:38:59.657Z,953.8597412
2022-09-12T06:40:00.144Z,953.8623657
2022-09-12T06:41:00.562Z,953.8527222
2022-09-12T06:42:01.000Z,953.8526611
2022-09-12T06:43:01.491Z,953.8713989
2022-09-12T06:44:01.960Z,953.833252
2022-09-12T06:45:02.416Z,953.8602905
2022-09-12T06:46:03.416Z,953.8217163
2022-09-12T06:47:03.846Z,953.803894
2022-09-12T06:48:04.233Z,953.7926636
2022-09-12T06:49:04.715Z,953.7885742
2022-09-12T06:50:05.158Z,953.7634277
2022-09-12T06:51:06.398Z,953.770752
2022-09-12T06:52:06.944Z,953.7686157
2022-09-12T06:53:07.305Z,953.746582
2022-09-12T06:54:07.756Z,953.7391968
2022-09-12T06:55:08.186Z,953.7573242
2022-09-12T06:56:09.352Z,953.7788086
2022-09-12T06:57:09.902Z,953.7781372
2022-09-12T06:58:10.211Z,953.7664185
2022-09-12T06:59:10.656Z,953.7839355
2022-09-12T07:00:11.864Z,953.8076782
2022-09-12T07:01:12.373Z,953.7948608
2022-09-12T07:02:12.781Z,953.7941895
2022-09-12T07:03:13.150Z,953.7818604
2022-09-12T07:04:13.606Z,953.8106079
2022-09-12T07:05:14.043Z,953.7839355
2022-09-12T07:06:14.486Z,953.815918
2022-09-12T07:07:14.921Z,953.828125
2022-09-12T07:08:15.338Z,953.835083
2022-09-12T07:09:15.762Z,953.7994385
2022-09-12T07:10:21.595Z,953.8233032
2022-09-12T07:11:16.707Z,953.7709961
2022-09-12T07:12:17.170Z,953.8070068
2022-09-12T07:13:17.569Z,953.8390503
2022-09-12T07:14:17.994Z,953.7976685
2022-09-12T07:15:18.446Z,953.7885742
2022-09-12T07:16:20.244Z,953.7779541
2022-09-12T07:17:20.311Z,953.824707
2022-09-12T07:18:20.742Z,953.7634277
2022-09-12T07:19:21.180Z,953.7731323
2022-09-12T07:20:21.625Z,953.7821655
2022-09-12T07:21:22.049Z,953.7243652
2022-09-12T07:22:53.177Z,953.7324829
2022-09-12T07:23:54.375Z,953.710144
2022-09-12T07:24:54.803Z,953.7421875
2022-09-12T07:25:55.261Z,953.7038574
2022-09-12T07:26:56.649Z,953.6523438
2022-09-12T07:27:57.253Z,953.6669312
2022-09-12T07:29:08.299Z,953.6334229
2022-09-12T07:29:57.997Z,953.6391602
2022-09-12T07:30:58.464Z,953.6171265
2022-09-12T07:31:58.976Z,953.6149902
2022-09-12T07:33:00.445Z,953.6311035
2022-09-12T07:34:00.872Z,953.5994263
2022-09-12T07:35:02.099Z,953.6043701
2022-09-12T07:36:03.381Z,953.5413818
2022-09-12T07:37:03.889Z,953.5176392
2022-09-12T07:38:05.133Z,953.5315552
2022-09-12T07:39:05.491Z,953.5620117
2022-09-12T07:40:05.946Z,953.5529785
2022-09-12T07:41:06.313Z,953.4992065
2022-09-12T07:42:06.797Z,953.5113525
2022-09-12T07:43:07.417Z,953.5203247
2022-09-12T07:44:07.806Z,953.5328369
2022-09-12T07:45:08.210Z,953.5278931
2022-09-12T07:46:08.758Z,953.5737305
2022-09-12T07:47:09.672Z,953.5703125
2022-09-12T07:48:10.164Z,953.5499878
2022-09-12T07:49:10.586Z,953.5345459
2022-09-12T07:50:11.018Z,953.5443115
2022-09-12T07:51:11.686Z,953.5109253
2022-09-12T07:52:12.203Z,953.5524902
2022-09-12T07:53:13.761Z,953.5001831
2022-09-12T07:54:14.062Z,953.5264282
2022-09-12T07:55:14.527Z,953.4993896
2022-09-12T07:56:15.001Z,953.5354614
2022-09-12T07:57:16.110Z,953.5018921
2022-09-12T07:58:16.619Z,953.5297852
2022-09-12T07:59:35.292Z,953.5212402
2022-09-12T08:00:17.418Z,953.5292358
2022-09-12T08:01:17.930Z,953.5522461
2022-09-12T08:02:18.386Z,953.527832
2022-09-12T08:03:18.794Z,953.559082
2022-09-12T08:04:19.161Z,953.5697021
2022-09-12T08:05:19.568Z,953.5629883
2022-09-12T08:06:20.078Z,953.5522461
2022-09-12T08:07:21.110Z,953.5443115
2022-09-12T08:08:21.573Z,953.5664063
2022-09-12T08:09:52.549Z,953.5557861
2022-09-12T08:10:52.971Z,953.5287476
2022-09-12T08:11:53.435Z,953.5426636
2022-09-12T08:12:54.909Z,953.5736694
2022-09-12T08:13:55.987Z,953.4990845
2022-09-12T08:14:55.767Z,953.5067139
2022-09-12T08:15:56.233Z,953.5222168
2022-09-12T08:16:56.689Z,953.5303345
2022-09-12T08:17:57.113Z,953.5368652
2022-09-12T08:18:57.561Z,953.5501709
2022-09-12T08:19:57.955Z,953.5778198
2022-09-12T08:20:59.080Z,953.5754395
2022-09-12T08:21:59.551Z,953.5728149
2022-09-12T08:22:59.997Z,953.6219482
2022-09-12T08:24:00.479Z,953.5975952
2022-09-12T08:25:00.851Z,953.6148682
2022-09-12T08:26:05.779Z,953.5736084
2022-09-12T08:27:03.398Z,953.5671997
2022-09-12T08:28:03.856Z,953.5548706
2022-09-12T08:29:04.282Z,953.5580444
2022-09-12T08:30:04.683Z,953.5865479
2022-09-12T08:31:05.241Z,953.5848389
2022-09-12T08:32:05.676Z,953.5637207
2022-09-12T08:33:06.173Z,953.5997925
2022-09-12T08:34:06.688Z,953.5767212
2022-09-12T08:35:07.147Z,953.5619507
2022-09-12T08:36:07.571Z,953.5704956
2022-09-12T08:37:08.637Z,953.5448608
2022-09-12T08:38:09.106Z,953.5343628
2022-09-12T08:39:10.104Z,953.5637207
2022-09-12T08:40:10.599Z,953.5604858
2022-09-12T08:41:11.001Z,953.5865479
2022-09-12T08:43:12.181Z,953.6218872
2022-09-12T08:44:12.749Z,953.6431274
2022-09-12T08:45:13.025Z,953.6642456
2022-09-12T08:46:13.563Z,953.6395264
2022-09-12T08:47:14.616Z,953.5895996
2022-09-12T08:48:15.128Z,953.6330566
2022-09-12T08:49:15.583Z,953.6378174
2022-09-12T08:50:16.884Z,953.645874
2022-09-12T08:51:17.435Z,953.6517334
2022-09-12T08:52:17.903Z,953.6451416
2022-09-12T08:53:18.333Z,953.6375732
2022-09-12T08:54:18.849Z,953.6095581
2022-09-12T08:55:19.182Z,953.6199951
2022-09-12T08:56:19.652Z,953.6364136
2022-09-12T08:57:21.096Z,953.6150513
2022-09-12T08:58:52.037Z,953.5968628
2022-09-12T08:59:52.471Z,953.6270142
2022-09-12T09:00:52.934Z,953.6171265
2022-09-12T09:01:53.478Z,953.6286621
2022-09-12T09:02:53.896Z,953.6442261
2022-09-12T09:03:54.887Z,953.5940552
2022-09-12T09:04:55.405Z,953.6105347
2022-09-12T09:05:55.704Z,953.659668
2022-09-12T09:06:56.903Z,953.6521606
2022-09-12T09:07:57.335Z,953.6121826
2022-09-12T09:08:57.782Z,953.6660767
2022-09-12T09:09:58.236Z,953.6325073
2022-09-12T09:10:58.631Z,953.6629639
2022-09-12T09:11:59.124Z,953.6604614
2022-09-12T09:12:59.633Z,953.652832
2022-09-12T09:14:04.447Z,953.6759644
2022-09-12T09:15:00.597Z,953.6668701
2022-09-12T09:16:00.982Z,953.6513062
2022-09-12T09:17:01.893Z,953.6320801
2022-09-12T09:18:02.341Z,953.5847778
2022-09-12T09:19:02.803Z,953.6084595
2022-09-12T09:20:03.230Z,953.6370239
2022-09-12T09:21:03.623Z,953.5984497
2022-09-12T09:22:04.070Z,953.6333008
2022-09-12T09:23:04.513Z,953.6183472
2022-09-12T09:24:04.898Z,953.6464233
2022-09-12T09:25:06.190Z,953.5987549
2022-09-12T09:26:06.496Z,953.6077881
2022-09-12T09:27:23.610Z,953.6068115
2022-09-12T09:28:08.378Z,953.6403198
2022-09-12T09:29:08.814Z,953.5641479
2022-09-12T09:30:09.265Z,953.5993652
2022-09-12T09:31:09.697Z,953.6453247
2022-09-12T09:32:10.092Z,953.6206055
2022-09-12T09:33:10.514Z,953.6066284
2022-09-12T09:34:11.604Z,953.6478271
2022-09-12T09:35:12.082Z,953.6624756
2022-09-12T09:36:12.524Z,953.6517334
2022-09-12T09:37:13.904Z,953.6549072
2022-09-12T09:38:14.347Z,953.6287231
2022-09-12T09:39:14.766Z,953.6260986
2022-09-12T09:40:15.355Z,953.5900269
2022-09-12T09:41:15.693Z,953.6015015
2022-09-12T09:42:16.123Z,953.595459
2022-09-12T09:43:16.543Z,953.5864258
2022-09-12T09:44:16.956Z,953.6126709
2022-09-12T09:45:17.374Z,953.590332
2022-09-12T09:46:17.909Z,953.5574951
2022-09-12T09:47:18.900Z,953.5673218
2022-09-12T09:48:19.352Z,953.5516357
2022-09-12T09:49:19.755Z,953.5968018
2022-09-12T09:50:20.194Z,953.5482788
2022-09-12T09:51:21.061Z,953.5617676
2022-09-12T09:52:51.730Z,953.4927979
2022-09-12T09:53:52.223Z,953.487793
2022-09-12T09:54:52.644Z,953.4916992
2022-09-12T09:55:53.060Z,953.494873
2022-09-12T09:56:53.524Z,953.4841919
2022-09-12T09:57:54.605Z,953.4595337
2022-09-12T09:58:55.037Z,953.4634399
2022-09-12T09:59:55.511Z,953.444519
2022-09-12T10:00:56.862Z,953.4346924
2022-09-12T10:01:57.211Z,953.4598999
2022-09-12T10:02:57.816Z,953.4146729
2022-09-12T10:03:58.921Z,953.3850098
2022-09-12T10:04:59.352Z,953.3848267
2022-09-12T10:05:59.896Z,953.3618164
2022-09-12T10:07:00.380Z,953.375
2022-09-12T10:08:01.615Z,953.3517456
2022-09-12T10:09:02.064Z,953.354126
2022-09-12T10:10:02.479Z,953.3155518
2022-09-12T10:11:02.984Z,953.3253174
2022-09-12T10:12:03.511Z,953.2849121
2022-09-12T10:13:03.956Z,953.3169556
2022-09-12T10:14:04.402Z,953.2772827
2022-09-12T10:15:04.820Z,953.3069458
2022-09-12T10:16:05.338Z,953.3076782
2022-09-12T10:17:06.421Z,953.2640381
2022-09-12T10:18:07.429Z,953.3453369
2022-09-12T10:19:07.995Z,953.3303833
2022-09-12T10:20:21.094Z,953.3295898
2022-09-12T10:21:09.493Z,953.3024902
2022-09-12T10:22:09.931Z,953.2980957
2022-09-12T10:23:10.402Z,953.3245239
2022-09-12T10:24:10.820Z,953.2997437
2022-09-12T10:25:11.336Z,953.2955322
2022-09-12T10:26:12.133Z,953.2543945
2022-09-12T10:27:12.643Z,953.2466431
2022-09-12T10:28:13.637Z,953.2668457
2022-09-12T10:29:14.040Z,953.2488403
2022-09-12T10:30:14.567Z,953.2406006
2022-09-12T10:31:15.069Z,953.2092896
2022-09-12T10:32:15.468Z,953.2109985
2022-09-12T10:33:15.938Z,953.2232666
2022-09-12T10:34:16.332Z,953.2025146
2022-09-12T10:35:16.743Z,953.2345581
2022-09-12T10:36:17.276Z,953.1481323
2022-09-12T10:37:17.683Z,953.1400146
